sensor_id;sensor_type;location;lat;lon;timestamp;P1;durP1;ratioP1;P2;durP2;ratioP2
50549;SDS011;36505;52.512;13.460;2024-02-14T00:01:14;10.70;;;5.40;;
50549;SDS011;36505;52.512;13.460;2024-02-14T00:03:39;10.05;;;4.82;;
50549;SDS011;36505;52.512;13.460;2024-02-14T00:06:05;12.18;;;5.47;;
50549;SDS011;36505;52.512;13.460;2024-02-14T00:08:31;8.85;;;5.22;;
50549;SDS011;36505;52.512;13.460;2024-02-14T00:10:56;10.88;;;5.68;;
50549;SDS011;36505;52.512;13.460;2024-02-14T00:13:22;12.18;;;6.30;;
50549;SDS011;36505;52.512;13.460;2024-02-14T00:15:47;11.02;;;5.68;;
50549;SDS011;36505;52.512;13.460;2024-02-14T00:18:13;10.15;;;5.25;;
50549;SDS011;36505;52.512;13.460;2024-02-14T00:20:40;9.73;;;6.28;;
50549;SDS011;36505;52.512;13.460;2024-02-14T00:23:05;7.43;;;4.85;;
50549;SDS011;36505;52.512;13.460;2024-02-14T00:25:31;11.80;;;5.43;;
50549;SDS011;36505;52.512;13.460;2024-02-14T00:27:56;10.57;;;5.20;;
50549;SDS011;36505;52.512;13.460;2024-02-14T00:30:23;13.02;;;6.13;;
50549;SDS011;36505;52.512;13.460;2024-02-14T00:32:50;13.40;;;6.15;;
50549;SDS011;36505;52.512;13.460;2024-02-14T00:35:15;12.15;;;6.85;;
50549;SDS011;36505;52.512;13.460;2024-02-14T00:37:40;9.07;;;5.82;;
50549;SDS011;36505;52.512;13.460;2024-02-14T00:40:06;10.07;;;5.90;;
50549;SDS011;36505;52.512;13.460;2024-02-14T00:42:32;13.68;;;6.20;;
50549;SDS011;36505;52.512;13.460;2024-02-14T00:44:57;10.15;;;5.55;;
50549;SDS011;36505;52.512;13.460;2024-02-14T00:47:22;8.15;;;5.20;;
50549;SDS011;36505;52.512;13.460;2024-02-14T00:49:48;12.20;;;6.97;;
50549;SDS011;36505;52.512;13.460;2024-02-14T00:52:13;10.05;;;5.82;;
50549;SDS011;36505;52.512;13.460;2024-02-14T00:54:39;14.27;;;5.90;;
50549;SDS011;36505;52.512;13.460;2024-02-14T00:57:04;10.52;;;5.20;;
50549;SDS011;36505;52.512;13.460;2024-02-14T00:59:30;11.05;;;6.38;;
50549;SDS011;36505;52.512;13.460;2024-02-14T01:01:55;10.40;;;5.68;;
50549;SDS011;36505;52.512;13.460;2024-02-14T01:04:21;13.63;;;5.93;;
50549;SDS011;36505;52.512;13.460;2024-02-14T01:06:46;13.32;;;5.78;;
50549;SDS011;36505;52.512;13.460;2024-02-14T01:09:14;8.35;;;5.65;;
50549;SDS011;36505;52.512;13.460;2024-02-14T01:11:39;8.73;;;5.38;;
50549;SDS011;36505;52.512;13.460;2024-02-14T01:14:05;9.48;;;5.82;;
50549;SDS011;36505;52.512;13.460;2024-02-14T01:16:31;10.18;;;5.75;;
50549;SDS011;36505;52.512;13.460;2024-02-14T01:18:56;10.88;;;6.10;;
50549;SDS011;36505;52.512;13.460;2024-02-14T01:21:21;9.95;;;4.93;;
50549;SDS011;36505;52.512;13.460;2024-02-14T01:23:47;10.57;;;5.70;;
50549;SDS011;36505;52.512;13.460;2024-02-14T01:26:12;9.55;;;5.40;;
50549;SDS011;36505;52.512;13.460;2024-02-14T01:28:37;11.77;;;6.22;;
50549;SDS011;36505;52.512;13.460;2024-02-14T01:31:03;9.63;;;5.82;;
50549;SDS011;36505;52.512;13.460;2024-02-14T01:33:28;7.78;;;5.00;;
50549;SDS011;36505;52.512;13.460;2024-02-14T01:35:55;8.93;;;5.15;;
50549;SDS011;36505;52.512;13.460;2024-02-14T01:38:21;11.02;;;5.22;;
50549;SDS011;36505;52.512;13.460;2024-02-14T01:40:46;9.43;;;5.65;;
50549;SDS011;36505;52.512;13.460;2024-02-14T01:43:12;15.95;;;5.35;;
50549;SDS011;36505;52.512;13.460;2024-02-14T01:45:39;11.52;;;6.25;;
50549;SDS011;36505;52.512;13.460;2024-02-14T01:48:05;9.52;;;5.05;;
50549;SDS011;36505;52.512;13.460;2024-02-14T01:50:31;10.10;;;4.93;;
50549;SDS011;36505;52.512;13.460;2024-02-14T01:52:58;9.85;;;5.53;;
50549;SDS011;36505;52.512;13.460;2024-02-14T01:55:24;10.95;;;5.70;;
50549;SDS011;36505;52.512;13.460;2024-02-14T01:57:51;11.00;;;5.25;;
50549;SDS011;36505;52.512;13.460;2024-02-14T02:00:17;8.75;;;5.25;;
50549;SDS011;36505;52.512;13.460;2024-02-14T02:02:43;7.70;;;5.03;;
50549;SDS011;36505;52.512;13.460;2024-02-14T02:05:09;8.18;;;4.72;;
50549;SDS011;36505;52.512;13.460;2024-02-14T02:07:34;9.52;;;4.85;;
50549;SDS011;36505;52.512;13.460;2024-02-14T02:10:03;8.88;;;5.63;;
50549;SDS011;36505;52.512;13.460;2024-02-14T02:12:29;8.98;;;5.20;;
50549;SDS011;36505;52.512;13.460;2024-02-14T02:14:55;11.50;;;5.28;;
50549;SDS011;36505;52.512;13.460;2024-02-14T02:17:20;7.50;;;4.45;;
50549;SDS011;36505;52.512;13.460;2024-02-14T02:19:46;10.55;;;4.57;;
50549;SDS011;36505;52.512;13.460;2024-02-14T02:22:11;10.70;;;5.60;;
50549;SDS011;36505;52.512;13.460;2024-02-14T02:24:36;7.75;;;4.93;;
50549;SDS011;36505;52.512;13.460;2024-02-14T02:27:02;7.65;;;4.60;;
50549;SDS011;36505;52.512;13.460;2024-02-14T02:29:28;9.63;;;4.10;;
50549;SDS011;36505;52.512;13.460;2024-02-14T02:31:54;9.02;;;5.07;;
50549;SDS011;36505;52.512;13.460;2024-02-14T02:34:19;8.98;;;5.45;;
50549;SDS011;36505;52.512;13.460;2024-02-14T02:36:45;6.55;;;4.10;;
50549;SDS011;36505;52.512;13.460;2024-02-14T02:39:11;7.72;;;4.57;;
50549;SDS011;36505;52.512;13.460;2024-02-14T02:41:37;7.47;;;4.82;;
50549;SDS011;36505;52.512;13.460;2024-02-14T02:44:02;7.88;;;4.68;;
50549;SDS011;36505;52.512;13.460;2024-02-14T02:46:31;7.82;;;4.13;;
50549;SDS011;36505;52.512;13.460;2024-02-14T02:48:56;9.98;;;4.65;;
50549;SDS011;36505;52.512;13.460;2024-02-14T02:51:23;8.30;;;4.70;;
50549;SDS011;36505;52.512;13.460;2024-02-14T02:53:49;9.57;;;4.28;;
50549;SDS011;36505;52.512;13.460;2024-02-14T02:56:14;7.57;;;4.30;;
50549;SDS011;36505;52.512;13.460;2024-02-14T02:58:40;7.28;;;3.97;;
50549;SDS011;36505;52.512;13.460;2024-02-14T03:01:08;10.50;;;3.95;;
50549;SDS011;36505;52.512;13.460;2024-02-14T03:03:34;10.40;;;4.22;;
50549;SDS011;36505;52.512;13.460;2024-02-14T03:06:01;5.53;;;3.90;;
50549;SDS011;36505;52.512;13.460;2024-02-14T03:08:28;7.00;;;4.40;;
50549;SDS011;36505;52.512;13.460;2024-02-14T03:10:55;6.72;;;4.28;;
50549;SDS011;36505;52.512;13.460;2024-02-14T03:13:27;6.50;;;4.10;;
50549;SDS011;36505;52.512;13.460;2024-02-14T03:15:53;10.82;;;4.47;;
50549;SDS011;36505;52.512;13.460;2024-02-14T03:18:18;6.95;;;4.35;;
50549;SDS011;36505;52.512;13.460;2024-02-14T03:20:44;7.30;;;4.35;;
50549;SDS011;36505;52.512;13.460;2024-02-14T03:23:09;6.53;;;3.80;;
50549;SDS011;36505;52.512;13.460;2024-02-14T03:25:35;9.27;;;4.97;;
50549;SDS011;36505;52.512;13.460;2024-02-14T03:28:02;7.57;;;3.53;;
50549;SDS011;36505;52.512;13.460;2024-02-14T03:30:33;7.78;;;4.03;;
50549;SDS011;36505;52.512;13.460;2024-02-14T03:32:59;7.55;;;4.35;;
50549;SDS011;36505;52.512;13.460;2024-02-14T03:35:24;7.35;;;4.30;;
50549;SDS011;36505;52.512;13.460;2024-02-14T03:37:51;9.88;;;4.72;;
50549;SDS011;36505;52.512;13.460;2024-02-14T03:40:18;7.68;;;4.15;;
50549;SDS011;36505;52.512;13.460;2024-02-14T03:42:47;7.45;;;4.25;;
50549;SDS011;36505;52.512;13.460;2024-02-14T03:45:13;9.25;;;4.38;;
50549;SDS011;36505;52.512;13.460;2024-02-14T03:47:39;7.72;;;4.68;;
50549;SDS011;36505;52.512;13.460;2024-02-14T03:50:05;8.13;;;3.85;;
50549;SDS011;36505;52.512;13.460;2024-02-14T03:52:32;8.43;;;4.10;;
50549;SDS011;36505;52.512;13.460;2024-02-14T03:55:00;7.60;;;5.03;;
50549;SDS011;36505;52.512;13.460;2024-02-14T03:57:27;9.40;;;4.30;;
50549;SDS011;36505;52.512;13.460;2024-02-14T03:59:59;8.15;;;4.70;;
50549;SDS011;36505;52.512;13.460;2024-02-14T04:02:27;6.88;;;4.65;;
50549;SDS011;36505;52.512;13.460;2024-02-14T04:04:53;9.75;;;4.80;;
50549;SDS011;36505;52.512;13.460;2024-02-14T04:07:18;8.68;;;5.43;;
50549;SDS011;36505;52.512;13.460;2024-02-14T04:09:44;9.05;;;5.43;;
50549;SDS011;36505;52.512;13.460;2024-02-14T04:12:09;11.98;;;5.15;;
50549;SDS011;36505;52.512;13.460;2024-02-14T04:14:35;9.68;;;5.65;;
50549;SDS011;36505;52.512;13.460;2024-02-14T04:17:01;8.68;;;5.05;;
50549;SDS011;36505;52.512;13.460;2024-02-14T04:19:27;16.35;;;6.18;;
50549;SDS011;36505;52.512;13.460;2024-02-14T04:21:53;6.38;;;4.30;;
50549;SDS011;36505;52.512;13.460;2024-02-14T04:24:18;9.32;;;5.57;;
50549;SDS011;36505;52.512;13.460;2024-02-14T04:26:44;12.13;;;6.05;;
50549;SDS011;36505;52.512;13.460;2024-02-14T04:29:09;10.40;;;5.20;;
50549;SDS011;36505;52.512;13.460;2024-02-14T04:31:35;13.63;;;5.47;;
50549;SDS011;36505;52.512;13.460;2024-02-14T04:34:00;10.70;;;5.68;;
50549;SDS011;36505;52.512;13.460;2024-02-14T04:36:26;15.27;;;5.70;;
50549;SDS011;36505;52.512;13.460;2024-02-14T04:38:52;10.27;;;5.78;;
50549;SDS011;36505;52.512;13.460;2024-02-14T04:41:18;7.95;;;4.70;;
50549;SDS011;36505;52.512;13.460;2024-02-14T04:43:44;12.82;;;5.68;;
50549;SDS011;36505;52.512;13.460;2024-02-14T04:46:10;12.27;;;5.38;;
50549;SDS011;36505;52.512;13.460;2024-02-14T04:48:35;9.50;;;5.30;;
50549;SDS011;36505;52.512;13.460;2024-02-14T04:51:02;11.57;;;5.93;;
50549;SDS011;36505;52.512;13.460;2024-02-14T04:53:27;9.85;;;5.25;;
50549;SDS011;36505;52.512;13.460;2024-02-14T04:55:53;12.45;;;6.30;;
50549;SDS011;36505;52.512;13.460;2024-02-14T04:58:19;10.35;;;5.20;;
50549;SDS011;36505;52.512;13.460;2024-02-14T05:00:45;9.90;;;6.53;;
50549;SDS011;36505;52.512;13.460;2024-02-14T05:03:10;10.32;;;5.43;;
50549;SDS011;36505;52.512;13.460;2024-02-14T05:05:36;8.75;;;6.15;;
50549;SDS011;36505;52.512;13.460;2024-02-14T05:08:02;9.25;;;5.05;;
50549;SDS011;36505;52.512;13.460;2024-02-14T05:10:28;12.88;;;5.43;;
50549;SDS011;36505;52.512;13.460;2024-02-14T05:12:54;9.77;;;5.43;;
50549;SDS011;36505;52.512;13.460;2024-02-14T05:15:19;11.55;;;6.10;;
50549;SDS011;36505;52.512;13.460;2024-02-14T05:17:45;10.52;;;5.28;;
50549;SDS011;36505;52.512;13.460;2024-02-14T05:20:10;8.13;;;5.22;;
50549;SDS011;36505;52.512;13.460;2024-02-14T05:22:37;9.90;;;5.10;;
50549;SDS011;36505;52.512;13.460;2024-02-14T05:25:03;10.32;;;5.50;;
50549;SDS011;36505;52.512;13.460;2024-02-14T05:27:30;9.23;;;6.03;;
50549;SDS011;36505;52.512;13.460;2024-02-14T05:29:56;8.30;;;5.35;;
50549;SDS011;36505;52.512;13.460;2024-02-14T05:32:22;13.95;;;5.20;;
50549;SDS011;36505;52.512;13.460;2024-02-14T05:34:47;9.00;;;5.03;;
50549;SDS011;36505;52.512;13.460;2024-02-14T05:37:13;13.10;;;5.10;;
50549;SDS011;36505;52.512;13.460;2024-02-14T05:39:39;6.15;;;4.40;;
50549;SDS011;36505;52.512;13.460;2024-02-14T05:42:05;11.32;;;5.43;;
50549;SDS011;36505;52.512;13.460;2024-02-14T05:44:30;11.80;;;4.75;;
50549;SDS011;36505;52.512;13.460;2024-02-14T05:46:56;10.23;;;5.72;;
50549;SDS011;36505;52.512;13.460;2024-02-14T05:49:21;7.15;;;4.63;;
50549;SDS011;36505;52.512;13.460;2024-02-14T05:51:47;6.82;;;4.85;;
50549;SDS011;36505;52.512;13.460;2024-02-14T05:54:12;7.45;;;5.18;;
50549;SDS011;36505;52.512;13.460;2024-02-14T05:56:38;10.38;;;5.28;;
50549;SDS011;36505;52.512;13.460;2024-02-14T05:59:03;9.65;;;5.13;;
50549;SDS011;36505;52.512;13.460;2024-02-14T06:01:29;12.40;;;6.20;;
50549;SDS011;36505;52.512;13.460;2024-02-14T06:03:55;7.00;;;4.65;;
50549;SDS011;36505;52.512;13.460;2024-02-14T06:06:20;10.60;;;5.43;;
50549;SDS011;36505;52.512;13.460;2024-02-14T06:08:46;16.95;;;5.65;;
50549;SDS011;36505;52.512;13.460;2024-02-14T06:11:11;9.00;;;4.97;;
50549;SDS011;36505;52.512;13.460;2024-02-14T06:13:39;10.25;;;4.97;;
50549;SDS011;36505;52.512;13.460;2024-02-14T06:16:04;11.65;;;5.20;;
50549;SDS011;36505;52.512;13.460;2024-02-14T06:18:30;8.45;;;4.72;;
50549;SDS011;36505;52.512;13.460;2024-02-14T06:20:56;8.98;;;5.00;;
50549;SDS011;36505;52.512;13.460;2024-02-14T06:23:21;8.93;;;4.72;;
50549;SDS011;36505;52.512;13.460;2024-02-14T06:25:46;8.85;;;4.85;;
50549;SDS011;36505;52.512;13.460;2024-02-14T06:28:12;10.25;;;5.72;;
50549;SDS011;36505;52.512;13.460;2024-02-14T06:30:37;10.52;;;5.18;;
50549;SDS011;36505;52.512;13.460;2024-02-14T06:33:03;11.13;;;4.90;;
50549;SDS011;36505;52.512;13.460;2024-02-14T06:35:29;7.07;;;5.13;;
50549;SDS011;36505;52.512;13.460;2024-02-14T06:37:54;9.90;;;5.30;;
50549;SDS011;36505;52.512;13.460;2024-02-14T06:40:20;10.20;;;5.32;;
50549;SDS011;36505;52.512;13.460;2024-02-14T06:42:45;12.05;;;5.53;;
50549;SDS011;36505;52.512;13.460;2024-02-14T06:45:11;11.75;;;4.72;;
50549;SDS011;36505;52.512;13.460;2024-02-14T06:47:36;10.10;;;4.50;;
50549;SDS011;36505;52.512;13.460;2024-02-14T06:50:02;13.57;;;5.07;;
50549;SDS011;36505;52.512;13.460;2024-02-14T06:52:28;10.00;;;5.38;;
50549;SDS011;36505;52.512;13.460;2024-02-14T06:54:53;9.80;;;5.63;;
50549;SDS011;36505;52.512;13.460;2024-02-14T06:57:18;10.13;;;5.07;;
50549;SDS011;36505;52.512;13.460;2024-02-14T06:59:44;12.98;;;5.30;;
50549;SDS011;36505;52.512;13.460;2024-02-14T07:02:09;11.30;;;5.32;;
50549;SDS011;36505;52.512;13.460;2024-02-14T07:04:34;8.20;;;5.00;;
50549;SDS011;36505;52.512;13.460;2024-02-14T07:07:00;12.05;;;4.78;;
50549;SDS011;36505;52.512;13.460;2024-02-14T07:09:25;10.05;;;4.45;;
50549;SDS011;36505;52.512;13.460;2024-02-14T07:11:51;10.48;;;4.80;;
50549;SDS011;36505;52.512;13.460;2024-02-14T07:14:19;15.70;;;5.20;;
50549;SDS011;36505;52.512;13.460;2024-02-14T07:16:44;11.00;;;5.18;;
50549;SDS011;36505;52.512;13.460;2024-02-14T07:19:10;10.98;;;5.05;;
50549;SDS011;36505;52.512;13.460;2024-02-14T07:21:35;8.45;;;4.90;;
50549;SDS011;36505;52.512;13.460;2024-02-14T07:24:02;10.70;;;4.47;;
50549;SDS011;36505;52.512;13.460;2024-02-14T07:26:29;10.35;;;4.93;;
50549;SDS011;36505;52.512;13.460;2024-02-14T07:28:54;9.80;;;4.68;;
50549;SDS011;36505;52.512;13.460;2024-02-14T07:31:20;8.52;;;4.75;;
50549;SDS011;36505;52.512;13.460;2024-02-14T07:33:45;7.80;;;3.80;;
50549;SDS011;36505;52.512;13.460;2024-02-14T07:36:12;11.65;;;4.45;;
50549;SDS011;36505;52.512;13.460;2024-02-14T07:38:38;7.53;;;4.65;;
50549;SDS011;36505;52.512;13.460;2024-02-14T07:41:03;8.65;;;4.53;;
50549;SDS011;36505;52.512;13.460;2024-02-14T07:43:28;15.85;;;5.93;;
50549;SDS011;36505;52.512;13.460;2024-02-14T07:45:54;7.97;;;4.63;;
50549;SDS011;36505;52.512;13.460;2024-02-14T07:48:19;10.15;;;5.15;;
50549;SDS011;36505;52.512;13.460;2024-02-14T07:50:45;9.70;;;4.88;;
50549;SDS011;36505;52.512;13.460;2024-02-14T07:53:10;9.60;;;5.10;;
50549;SDS011;36505;52.512;13.460;2024-02-14T07:55:36;8.93;;;4.93;;
50549;SDS011;36505;52.512;13.460;2024-02-14T07:58:01;9.27;;;4.78;;
50549;SDS011;36505;52.512;13.460;2024-02-14T08:00:26;8.45;;;4.47;;
50549;SDS011;36505;52.512;13.460;2024-02-14T08:02:52;11.13;;;6.80;;
50549;SDS011;36505;52.512;13.460;2024-02-14T08:05:17;13.50;;;6.15;;
50549;SDS011;36505;52.512;13.460;2024-02-14T08:07:46;10.40;;;5.38;;
50549;SDS011;36505;52.512;13.460;2024-02-14T08:10:11;14.23;;;6.05;;
50549;SDS011;36505;52.512;13.460;2024-02-14T08:12:37;10.95;;;5.22;;
50549;SDS011;36505;52.512;13.460;2024-02-14T08:15:02;8.00;;;4.38;;
50549;SDS011;36505;52.512;13.460;2024-02-14T08:17:29;12.75;;;5.45;;
50549;SDS011;36505;52.512;13.460;2024-02-14T08:19:55;12.98;;;4.55;;
50549;SDS011;36505;52.512;13.460;2024-02-14T08:22:20;12.85;;;4.55;;
50549;SDS011;36505;52.512;13.460;2024-02-14T08:24:46;10.70;;;4.43;;
50549;SDS011;36505;52.512;13.460;2024-02-14T08:27:11;14.15;;;4.70;;
50549;SDS011;36505;52.512;13.460;2024-02-14T08:29:36;9.20;;;4.68;;
50549;SDS011;36505;52.512;13.460;2024-02-14T08:32:02;9.35;;;4.57;;
50549;SDS011;36505;52.512;13.460;2024-02-14T08:34:28;10.20;;;4.95;;
50549;SDS011;36505;52.512;13.460;2024-02-14T08:36:54;11.75;;;4.82;;
50549;SDS011;36505;52.512;13.460;2024-02-14T08:39:20;12.15;;;5.07;;
50549;SDS011;36505;52.512;13.460;2024-02-14T08:41:46;10.18;;;5.25;;
50549;SDS011;36505;52.512;13.460;2024-02-14T08:44:12;9.90;;;5.20;;
50549;SDS011;36505;52.512;13.460;2024-02-14T08:46:40;10.15;;;5.68;;
50549;SDS011;36505;52.512;13.460;2024-02-14T08:49:09;10.00;;;4.95;;
50549;SDS011;36505;52.512;13.460;2024-02-14T08:51:35;9.88;;;4.78;;
50549;SDS011;36505;52.512;13.460;2024-02-14T08:54:01;12.50;;;4.80;;
50549;SDS011;36505;52.512;13.460;2024-02-14T08:56:30;6.53;;;4.15;;
50549;SDS011;36505;52.512;13.460;2024-02-14T08:58:58;8.60;;;4.60;;
50549;SDS011;36505;52.512;13.460;2024-02-14T09:01:27;8.02;;;4.22;;
50549;SDS011;36505;52.512;13.460;2024-02-14T09:03:53;7.80;;;4.05;;
50549;SDS011;36505;52.512;13.460;2024-02-14T09:06:19;13.25;;;4.47;;
50549;SDS011;36505;52.512;13.460;2024-02-14T09:08:44;7.38;;;3.55;;
50549;SDS011;36505;52.512;13.460;2024-02-14T09:11:10;9.50;;;3.67;;
50549;SDS011;36505;52.512;13.460;2024-02-14T09:13:37;8.45;;;3.88;;
50549;SDS011;36505;52.512;13.460;2024-02-14T09:16:03;10.10;;;4.20;;
50549;SDS011;36505;52.512;13.460;2024-02-14T09:18:28;12.27;;;3.65;;
50549;SDS011;36505;52.512;13.460;2024-02-14T09:20:56;8.32;;;3.58;;
50549;SDS011;36505;52.512;13.460;2024-02-14T09:23:22;5.60;;;2.83;;
50549;SDS011;36505;52.512;13.460;2024-02-14T09:25:48;9.18;;;4.10;;
50549;SDS011;36505;52.512;13.460;2024-02-14T09:28:15;6.45;;;3.33;;
50549;SDS011;36505;52.512;13.460;2024-02-14T09:30:41;6.88;;;3.85;;
50549;SDS011;36505;52.512;13.460;2024-02-14T09:33:06;9.73;;;3.97;;
50549;SDS011;36505;52.512;13.460;2024-02-14T09:35:32;5.18;;;3.28;;
50549;SDS011;36505;52.512;13.460;2024-02-14T09:37:57;5.40;;;2.92;;
50549;SDS011;36505;52.512;13.460;2024-02-14T09:40:22;10.52;;;5.30;;
50549;SDS011;36505;52.512;13.460;2024-02-14T09:42:53;8.00;;;3.83;;
50549;SDS011;36505;52.512;13.460;2024-02-14T09:45:26;7.85;;;3.83;;
50549;SDS011;36505;52.512;13.460;2024-02-14T09:47:52;7.20;;;4.10;;
50549;SDS011;36505;52.512;13.460;2024-02-14T09:50:18;9.43;;;4.40;;
50549;SDS011;36505;52.512;13.460;2024-02-14T09:52:45;6.05;;;3.03;;
50549;SDS011;36505;52.512;13.460;2024-02-14T09:55:13;5.55;;;3.30;;
50549;SDS011;36505;52.512;13.460;2024-02-14T09:57:41;11.40;;;3.65;;
50549;SDS011;36505;52.512;13.460;2024-02-14T10:00:10;8.57;;;3.75;;
50549;SDS011;36505;52.512;13.460;2024-02-14T10:02:40;11.63;;;2.92;;
50549;SDS011;36505;52.512;13.460;2024-02-14T10:05:07;8.88;;;3.50;;
50549;SDS011;36505;52.512;13.460;2024-02-14T10:07:40;5.18;;;2.78;;
50549;SDS011;36505;52.512;13.460;2024-02-14T10:10:06;6.18;;;2.60;;
50549;SDS011;36505;52.512;13.460;2024-02-14T10:12:32;6.90;;;3.70;;
50549;SDS011;36505;52.512;13.460;2024-02-14T10:14:57;4.70;;;2.83;;
50549;SDS011;36505;52.512;13.460;2024-02-14T10:17:23;9.65;;;4.72;;
50549;SDS011;36505;52.512;13.460;2024-02-14T10:19:55;8.07;;;3.25;;
50549;SDS011;36505;52.512;13.460;2024-02-14T10:22:24;8.10;;;3.85;;
50549;SDS011;36505;52.512;13.460;2024-02-14T10:24:50;6.00;;;3.28;;
50549;SDS011;36505;52.512;13.460;2024-02-14T10:27:16;6.90;;;3.40;;
50549;SDS011;36505;52.512;13.460;2024-02-14T10:29:41;9.85;;;3.83;;
50549;SDS011;36505;52.512;13.460;2024-02-14T10:32:08;6.70;;;3.15;;
50549;SDS011;36505;52.512;13.460;2024-02-14T10:34:34;6.57;;;3.28;;
50549;SDS011;36505;52.512;13.460;2024-02-14T10:37:02;6.07;;;2.72;;
50549;SDS011;36505;52.512;13.460;2024-02-14T10:39:29;7.55;;;3.00;;
50549;SDS011;36505;52.512;13.460;2024-02-14T10:41:56;5.80;;;2.75;;
50549;SDS011;36505;52.512;13.460;2024-02-14T10:44:21;9.98;;;4.30;;
50549;SDS011;36505;52.512;13.460;2024-02-14T10:46:47;6.95;;;3.25;;
50549;SDS011;36505;52.512;13.460;2024-02-14T10:49:17;6.13;;;3.30;;
50549;SDS011;36505;52.512;13.460;2024-02-14T10:51:45;10.02;;;3.72;;
50549;SDS011;36505;52.512;13.460;2024-02-14T10:54:13;13.68;;;6.18;;
50549;SDS011;36505;52.512;13.460;2024-02-14T10:56:42;7.80;;;3.33;;
50549;SDS011;36505;52.512;13.460;2024-02-14T10:59:11;9.13;;;3.42;;
50549;SDS011;36505;52.512;13.460;2024-02-14T11:01:40;7.72;;;2.53;;
50549;SDS011;36505;52.512;13.460;2024-02-14T11:04:07;5.95;;;2.88;;
50549;SDS011;36505;52.512;13.460;2024-02-14T11:06:43;4.95;;;2.55;;
50549;SDS011;36505;52.512;13.460;2024-02-14T11:09:11;6.00;;;3.47;;
50549;SDS011;36505;52.512;13.460;2024-02-14T11:11:38;11.13;;;3.17;;
50549;SDS011;36505;52.512;13.460;2024-02-14T11:14:03;6.25;;;3.25;;
50549;SDS011;36505;52.512;13.460;2024-02-14T11:16:30;6.00;;;3.20;;
50549;SDS011;36505;52.512;13.460;2024-02-14T11:19:08;7.03;;;3.17;;
50549;SDS011;36505;52.512;13.460;2024-02-14T11:21:41;6.07;;;3.22;;
50549;SDS011;36505;52.512;13.460;2024-02-14T11:24:11;7.82;;;3.67;;
50549;SDS011;36505;52.512;13.460;2024-02-14T11:29:13;6.93;;;3.88;;
50549;SDS011;36505;52.512;13.460;2024-02-14T11:31:39;7.13;;;3.00;;
50549;SDS011;36505;52.512;13.460;2024-02-14T11:34:05;9.85;;;4.25;;
50549;SDS011;36505;52.512;13.460;2024-02-14T11:36:33;9.77;;;3.92;;
50549;SDS011;36505;52.512;13.460;2024-02-14T11:39:03;6.72;;;4.15;;
50549;SDS011;36505;52.512;13.460;2024-02-14T11:41:34;7.95;;;3.30;;
50549;SDS011;36505;52.512;13.460;2024-02-14T11:44:00;9.43;;;4.78;;
50549;SDS011;36505;52.512;13.460;2024-02-14T11:46:29;8.77;;;2.60;;
50549;SDS011;36505;52.512;13.460;2024-02-14T11:49:04;10.55;;;3.42;;
50549;SDS011;36505;52.512;13.460;2024-02-14T11:51:30;8.10;;;3.97;;
50549;SDS011;36505;52.512;13.460;2024-02-14T11:53:58;5.63;;;2.85;;
50549;SDS011;36505;52.512;13.460;2024-02-14T11:56:33;4.32;;;2.78;;
50549;SDS011;36505;52.512;13.460;2024-02-14T11:59:01;5.93;;;3.40;;
50549;SDS011;36505;52.512;13.460;2024-02-14T12:01:28;10.85;;;3.85;;
50549;SDS011;36505;52.512;13.460;2024-02-14T12:03:56;8.38;;;3.88;;
50549;SDS011;36505;52.512;13.460;2024-02-14T12:06:22;9.27;;;3.60;;
50549;SDS011;36505;52.512;13.460;2024-02-14T12:08:48;10.38;;;3.55;;
50549;SDS011;36505;52.512;13.460;2024-02-14T12:11:14;5.20;;;2.75;;
50549;SDS011;36505;52.512;13.460;2024-02-14T12:13:39;10.25;;;4.03;;
50549;SDS011;36505;52.512;13.460;2024-02-14T12:16:08;10.75;;;5.10;;
50549;SDS011;36505;52.512;13.460;2024-02-14T12:18:35;12.20;;;5.78;;
50549;SDS011;36505;52.512;13.460;2024-02-14T12:21:04;7.82;;;4.35;;
50549;SDS011;36505;52.512;13.460;2024-02-14T12:23:32;8.95;;;3.67;;
50549;SDS011;36505;52.512;13.460;2024-02-14T12:26:01;8.07;;;3.75;;
50549;SDS011;36505;52.512;13.460;2024-02-14T12:28:28;9.27;;;3.63;;
50549;SDS011;36505;52.512;13.460;2024-02-14T12:30:58;5.57;;;3.20;;
50549;SDS011;36505;52.512;13.460;2024-02-14T12:33:27;5.82;;;3.10;;
50549;SDS011;36505;52.512;13.460;2024-02-14T12:35:53;5.57;;;3.53;;
50549;SDS011;36505;52.512;13.460;2024-02-14T12:38:20;7.95;;;3.00;;
50549;SDS011;36505;52.512;13.460;2024-02-14T12:40:47;6.20;;;2.83;;
50549;SDS011;36505;52.512;13.460;2024-02-14T12:43:14;8.43;;;3.15;;
50549;SDS011;36505;52.512;13.460;2024-02-14T12:45:41;8.95;;;3.15;;
50549;SDS011;36505;52.512;13.460;2024-02-14T12:48:07;6.50;;;3.35;;
50549;SDS011;36505;52.512;13.460;2024-02-14T12:50:33;7.75;;;3.00;;
50549;SDS011;36505;52.512;13.460;2024-02-14T12:53:00;7.10;;;3.63;;
50549;SDS011;36505;52.512;13.460;2024-02-14T12:55:28;7.13;;;3.03;;
50549;SDS011;36505;52.512;13.460;2024-02-14T12:57:56;8.18;;;3.58;;
50549;SDS011;36505;52.512;13.460;2024-02-14T13:00:22;9.45;;;3.47;;
50549;SDS011;36505;52.512;13.460;2024-02-14T13:02:48;7.10;;;4.13;;
50549;SDS011;36505;52.512;13.460;2024-02-14T13:05:14;5.07;;;3.42;;
50549;SDS011;36505;52.512;13.460;2024-02-14T13:07:41;7.90;;;3.10;;
50549;SDS011;36505;52.512;13.460;2024-02-14T13:10:07;8.60;;;3.97;;
50549;SDS011;36505;52.512;13.460;2024-02-14T13:12:37;7.28;;;3.60;;
50549;SDS011;36505;52.512;13.460;2024-02-14T13:15:03;5.15;;;2.85;;
50549;SDS011;36505;52.512;13.460;2024-02-14T13:17:29;5.05;;;2.72;;
50549;SDS011;36505;52.512;13.460;2024-02-14T13:19:54;8.55;;;3.28;;
50549;SDS011;36505;52.512;13.460;2024-02-14T13:22:20;5.10;;;2.72;;
50549;SDS011;36505;52.512;13.460;2024-02-14T13:24:45;5.85;;;2.90;;
50549;SDS011;36505;52.512;13.460;2024-02-14T13:27:11;8.25;;;3.08;;
50549;SDS011;36505;52.512;13.460;2024-02-14T13:29:36;6.22;;;2.83;;
50549;SDS011;36505;52.512;13.460;2024-02-14T13:32:01;4.13;;;2.42;;
50549;SDS011;36505;52.512;13.460;2024-02-14T13:34:28;9.30;;;3.17;;
50549;SDS011;36505;52.512;13.460;2024-02-14T13:36:53;8.40;;;2.90;;
50549;SDS011;36505;52.512;13.460;2024-02-14T13:39:20;7.82;;;2.88;;
50549;SDS011;36505;52.512;13.460;2024-02-14T13:41:45;7.30;;;3.42;;
50549;SDS011;36505;52.512;13.460;2024-02-14T13:44:11;6.93;;;3.45;;
50549;SDS011;36505;52.512;13.460;2024-02-14T13:46:36;8.55;;;3.40;;
50549;SDS011;36505;52.512;13.460;2024-02-14T13:49:02;5.85;;;3.30;;
50549;SDS011;36505;52.512;13.460;2024-02-14T13:51:27;7.03;;;3.60;;
50549;SDS011;36505;52.512;13.460;2024-02-14T13:53:53;5.25;;;3.47;;
50549;SDS011;36505;52.512;13.460;2024-02-14T13:56:18;7.03;;;3.17;;
50549;SDS011;36505;52.512;13.460;2024-02-14T13:58:46;5.25;;;3.00;;
50549;SDS011;36505;52.512;13.460;2024-02-14T14:01:12;9.73;;;3.92;;
50549;SDS011;36505;52.512;13.460;2024-02-14T14:03:37;8.25;;;3.45;;
50549;SDS011;36505;52.512;13.460;2024-02-14T14:06:03;6.57;;;3.00;;
50549;SDS011;36505;52.512;13.460;2024-02-14T14:08:30;6.45;;;3.30;;
50549;SDS011;36505;52.512;13.460;2024-02-14T14:10:56;7.43;;;3.10;;
50549;SDS011;36505;52.512;13.460;2024-02-14T14:13:21;9.02;;;3.05;;
50549;SDS011;36505;52.512;13.460;2024-02-14T14:15:47;7.80;;;3.53;;
50549;SDS011;36505;52.512;13.460;2024-02-14T14:18:12;8.23;;;3.30;;
50549;SDS011;36505;52.512;13.460;2024-02-14T14:20:38;5.10;;;2.97;;
50549;SDS011;36505;52.512;13.460;2024-02-14T14:23:03;9.73;;;4.85;;
50549;SDS011;36505;52.512;13.460;2024-02-14T14:25:29;8.80;;;5.22;;
50549;SDS011;36505;52.512;13.460;2024-02-14T14:27:56;7.03;;;3.72;;